sensor_id;sensor_type;location;lat;lon;timestamp;temperature;humidity
516;DHT22;244;48.508;9.052;2023-08-31T00:00:08;15.30;31.00
516;DHT22;244;48.508;9.052;2023-08-31T00:02:36;15.30;31.20
516;DHT22;244;48.508;9.052;2023-08-31T00:05:05;15.30;31.20
516;DHT22;244;48.508;9.052;2023-08-31T00:07:32;15.20;31.20
516;DHT22;244;48.508;9.052;2023-08-31T00:09:59;15.20;31.40
516;DHT22;244;48.508;9.052;2023-08-31T00:12:26;15.20;31.50
516;DHT22;244;48.508;9.052;2023-08-31T00:14:54;15.20;31.50
516;DHT22;244;48.508;9.052;2023-08-31T00:17:21;15.20;31.50
516;DHT22;244;48.508;9.052;2023-08-31T00:19:48;15.20;31.50
516;DHT22;244;48.508;9.052;2023-08-31T00:22:15;15.20;32.20
516;DHT22;244;48.508;9.052;2023-08-31T00:24:42;15.20;31.50
516;DHT22;244;48.508;9.052;2023-08-31T00:27:09;15.10;31.40
516;DHT22;244;48.508;9.052;2023-08-31T00:29:37;15.10;31.40
516;DHT22;244;48.508;9.052;2023-08-31T00:32:06;15.10;31.60
516;DHT22;244;48.508;9.052;2023-08-31T00:34:33;15.10;31.80
516;DHT22;244;48.508;9.052;2023-08-31T00:37:00;15.10;31.80
516;DHT22;244;48.508;9.052;2023-08-31T00:39:27;15.10;31.90
516;DHT22;244;48.508;9.052;2023-08-31T00:41:54;15.00;31.80
516;DHT22;244;48.508;9.052;2023-08-31T00:44:21;15.00;31.80
516;DHT22;244;48.508;9.052;2023-08-31T00:46:48;15.00;31.80
516;DHT22;244;48.508;9.052;2023-08-31T00:49:17;15.00;32.00
516;DHT22;244;48.508;9.052;2023-08-31T00:51:45;15.00;32.00
516;DHT22;244;48.508;9.052;2023-08-31T00:54:14;15.00;32.00
516;DHT22;244;48.508;9.052;2023-08-31T00:56:42;15.00;32.10
516;DHT22;244;48.508;9.052;2023-08-31T00:59:09;15.00;32.30
516;DHT22;244;48.508;9.052;2023-08-31T01:01:38;15.10;32.50
516;DHT22;244;48.508;9.052;2023-08-31T01:04:18;15.10;32.70
516;DHT22;244;48.508;9.052;2023-08-31T01:06:55;15.10;32.80
516;DHT22;244;48.508;9.052;2023-08-31T01:09:34;15.10;32.80
516;DHT22;244;48.508;9.052;2023-08-31T01:12:05;15.10;32.70
516;DHT22;244;48.508;9.052;2023-08-31T01:14:38;15.20;32.70
516;DHT22;244;48.508;9.052;2023-08-31T01:17:07;15.20;32.50
516;DHT22;244;48.508;9.052;2023-08-31T01:19:46;15.20;32.40
516;DHT22;244;48.508;9.052;2023-08-31T01:22:31;15.10;32.50
516;DHT22;244;48.508;9.052;2023-08-31T01:25:02;15.20;32.70
516;DHT22;244;48.508;9.052;2023-08-31T01:27:30;15.10;32.70
516;DHT22;244;48.508;9.052;2023-08-31T01:29:57;15.10;32.70
516;DHT22;244;48.508;9.052;2023-08-31T01:32:24;15.10;33.50
516;DHT22;244;48.508;9.052;2023-08-31T01:34:51;15.10;32.60
516;DHT22;244;48.508;9.052;2023-08-31T01:37:24;15.00;32.60
516;DHT22;244;48.508;9.052;2023-08-31T01:39:56;15.00;32.50
516;DHT22;244;48.508;9.052;2023-08-31T01:42:28;15.00;32.60
516;DHT22;244;48.508;9.052;2023-08-31T01:44:56;14.90;32.70
516;DHT22;244;48.508;9.052;2023-08-31T01:47:23;15.00;32.90
516;DHT22;244;48.508;9.052;2023-08-31T01:49:51;14.90;32.70
516;DHT22;244;48.508;9.052;2023-08-31T01:52:18;14.80;32.60
516;DHT22;244;48.508;9.052;2023-08-31T01:54:45;14.80;32.70
516;DHT22;244;48.508;9.052;2023-08-31T01:57:12;14.70;32.70
516;DHT22;244;48.508;9.052;2023-08-31T01:59:40;14.70;32.80
516;DHT22;244;48.508;9.052;2023-08-31T02:02:07;14.70;32.80
516;DHT22;244;48.508;9.052;2023-08-31T02:04:34;14.70;32.80
516;DHT22;244;48.508;9.052;2023-08-31T02:07:02;14.70;32.70
516;DHT22;244;48.508;9.052;2023-08-31T02:09:29;14.60;32.60
516;DHT22;244;48.508;9.052;2023-08-31T02:11:56;14.60;32.70
516;DHT22;244;48.508;9.052;2023-08-31T02:14:23;14.60;32.90
516;DHT22;244;48.508;9.052;2023-08-31T02:16:51;14.50;32.80
516;DHT22;244;48.508;9.052;2023-08-31T02:19:18;14.50;32.80
516;DHT22;244;48.508;9.052;2023-08-31T02:21:45;14.50;32.90
516;DHT22;244;48.508;9.052;2023-08-31T02:24:12;14.50;33.00
516;DHT22;244;48.508;9.052;2023-08-31T02:26:39;14.50;33.10
516;DHT22;244;48.508;9.052;2023-08-31T02:29:06;14.50;33.20
516;DHT22;244;48.508;9.052;2023-08-31T02:31:33;14.40;33.10
516;DHT22;244;48.508;9.052;2023-08-31T02:34:01;14.40;33.00
516;DHT22;244;48.508;9.052;2023-08-31T02:36:28;14.40;33.00
516;DHT22;244;48.508;9.052;2023-08-31T02:38:56;14.30;32.90
516;DHT22;244;48.508;9.052;2023-08-31T02:41:23;14.40;33.10
516;DHT22;244;48.508;9.052;2023-08-31T02:43:50;14.40;33.40
516;DHT22;244;48.508;9.052;2023-08-31T02:46:17;14.40;33.40
516;DHT22;244;48.508;9.052;2023-08-31T02:48:44;14.40;33.40
516;DHT22;244;48.508;9.052;2023-08-31T02:51:13;14.40;33.40
516;DHT22;244;48.508;9.052;2023-08-31T02:53:40;14.40;33.30
516;DHT22;244;48.508;9.052;2023-08-31T02:56:07;14.30;33.20
516;DHT22;244;48.508;9.052;2023-08-31T02:58:34;14.30;33.10
516;DHT22;244;48.508;9.052;2023-08-31T03:01:08;14.30;33.40
516;DHT22;244;48.508;9.052;2023-08-31T03:03:36;14.30;33.50
516;DHT22;244;48.508;9.052;2023-08-31T03:06:05;14.30;34.10
516;DHT22;244;48.508;9.052;2023-08-31T03:08:34;14.30;33.30
516;DHT22;244;48.508;9.052;2023-08-31T03:11:02;14.30;33.40
516;DHT22;244;48.508;9.052;2023-08-31T03:13:29;14.30;33.50
516;DHT22;244;48.508;9.052;2023-08-31T03:15:56;14.30;33.60
516;DHT22;244;48.508;9.052;2023-08-31T03:18:23;14.40;33.70
516;DHT22;244;48.508;9.052;2023-08-31T03:20:50;14.40;33.70
516;DHT22;244;48.508;9.052;2023-08-31T03:23:17;14.40;33.70
516;DHT22;244;48.508;9.052;2023-08-31T03:25:45;14.50;33.60
516;DHT22;244;48.508;9.052;2023-08-31T03:28:13;14.50;33.50
516;DHT22;244;48.508;9.052;2023-08-31T03:30:40;14.40;33.40
516;DHT22;244;48.508;9.052;2023-08-31T03:33:07;14.50;33.50
516;DHT22;244;48.508;9.052;2023-08-31T03:35:34;14.50;33.50
516;DHT22;244;48.508;9.052;2023-08-31T03:38:01;14.50;33.50
516;DHT22;244;48.508;9.052;2023-08-31T03:40:28;14.50;33.50
516;DHT22;244;48.508;9.052;2023-08-31T03:42:56;14.50;33.60
516;DHT22;244;48.508;9.052;2023-08-31T03:45:23;14.50;33.60
516;DHT22;244;48.508;9.052;2023-08-31T03:47:50;14.50;33.60
516;DHT22;244;48.508;9.052;2023-08-31T03:50:17;14.50;33.60
516;DHT22;244;48.508;9.052;2023-08-31T03:52:44;14.50;33.80
516;DHT22;244;48.508;9.052;2023-08-31T03:55:11;14.50;33.90
516;DHT22;244;48.508;9.052;2023-08-31T03:57:38;14.50;33.90
516;DHT22;244;48.508;9.052;2023-08-31T04:00:07;14.50;33.80
516;DHT22;244;48.508;9.052;2023-08-31T04:02:35;14.50;33.60
516;DHT22;244;48.508;9.052;2023-08-31T04:05:03;14.50;33.50
516;DHT22;244;48.508;9.052;2023-08-31T04:07:31;14.60;33.70
516;DHT22;244;48.508;9.052;2023-08-31T04:09:58;14.60;33.60
516;DHT22;244;48.508;9.052;2023-08-31T04:12:26;14.60;33.60
516;DHT22;244;48.508;9.052;2023-08-31T04:14:54;14.60;33.70
516;DHT22;244;48.508;9.052;2023-08-31T04:17:23;14.60;33.70
516;DHT22;244;48.508;9.052;2023-08-31T04:19:50;14.60;33.60
516;DHT22;244;48.508;9.052;2023-08-31T04:22:17;14.60;33.70
516;DHT22;244;48.508;9.052;2023-08-31T04:24:45;14.60;33.70
516;DHT22;244;48.508;9.052;2023-08-31T04:27:12;14.60;33.80
516;DHT22;244;48.508;9.052;2023-08-31T04:29:39;14.60;33.80
516;DHT22;244;48.508;9.052;2023-08-31T04:32:06;14.70;33.90
516;DHT22;244;48.508;9.052;2023-08-31T04:34:34;14.70;33.90
516;DHT22;244;48.508;9.052;2023-08-31T04:37:01;14.70;33.70
516;DHT22;244;48.508;9.052;2023-08-31T04:39:28;14.70;33.80
516;DHT22;244;48.508;9.052;2023-08-31T04:41:55;14.60;33.70
516;DHT22;244;48.508;9.052;2023-08-31T04:44:22;14.70;33.70
516;DHT22;244;48.508;9.052;2023-08-31T04:46:49;14.60;33.70
516;DHT22;244;48.508;9.052;2023-08-31T04:49:16;14.60;33.70
516;DHT22;244;48.508;9.052;2023-08-31T04:51:45;14.60;33.70
516;DHT22;244;48.508;9.052;2023-08-31T04:54:12;14.60;33.70
516;DHT22;244;48.508;9.052;2023-08-31T04:56:40;14.60;33.60
516;DHT22;244;48.508;9.052;2023-08-31T04:59:07;14.60;33.60
516;DHT22;244;48.508;9.052;2023-08-31T05:01:34;14.60;33.60
516;DHT22;244;48.508;9.052;2023-08-31T05:04:02;14.60;33.50
516;DHT22;244;48.508;9.052;2023-08-31T05:06:29;14.60;33.70
516;DHT22;244;48.508;9.052;2023-08-31T05:08:58;14.60;33.90
516;DHT22;244;48.508;9.052;2023-08-31T05:11:25;14.50;33.80
516;DHT22;244;48.508;9.052;2023-08-31T05:13:52;14.50;33.90
516;DHT22;244;48.508;9.052;2023-08-31T05:16:19;14.50;33.80
516;DHT22;244;48.508;9.052;2023-08-31T05:18:46;14.60;33.80
516;DHT22;244;48.508;9.052;2023-08-31T05:21:13;14.60;33.90
516;DHT22;244;48.508;9.052;2023-08-31T05:23:40;14.60;34.00
516;DHT22;244;48.508;9.052;2023-08-31T05:26:09;14.70;34.10
516;DHT22;244;48.508;9.052;2023-08-31T05:28:37;14.70;34.00
516;DHT22;244;48.508;9.052;2023-08-31T05:31:04;14.70;33.80
516;DHT22;244;48.508;9.052;2023-08-31T05:33:32;14.70;33.70
516;DHT22;244;48.508;9.052;2023-08-31T05:36:01;14.70;33.90
516;DHT22;244;48.508;9.052;2023-08-31T05:38:29;14.70;34.10
516;DHT22;244;48.508;9.052;2023-08-31T05:41:04;14.80;34.30
516;DHT22;244;48.508;9.052;2023-08-31T05:43:33;14.90;34.50
516;DHT22;244;48.508;9.052;2023-08-31T05:46:00;15.00;34.40
516;DHT22;244;48.508;9.052;2023-08-31T05:48:28;15.00;34.60
516;DHT22;244;48.508;9.052;2023-08-31T05:50:56;15.10;34.70
516;DHT22;244;48.508;9.052;2023-08-31T05:53:22;15.20;34.70
516;DHT22;244;48.508;9.052;2023-08-31T05:55:50;15.20;34.50
516;DHT22;244;48.508;9.052;2023-08-31T05:58:17;15.30;34.40
516;DHT22;244;48.508;9.052;2023-08-31T06:00:47;15.30;34.20
516;DHT22;244;48.508;9.052;2023-08-31T06:03:15;15.40;34.00
516;DHT22;244;48.508;9.052;2023-08-31T06:05:42;15.40;33.90
516;DHT22;244;48.508;9.052;2023-08-31T06:08:09;15.50;33.90
516;DHT22;244;48.508;9.052;2023-08-31T06:10:37;15.50;33.70
516;DHT22;244;48.508;9.052;2023-08-31T06:13:05;15.50;33.50
516;DHT22;244;48.508;9.052;2023-08-31T06:15:48;15.50;33.50
516;DHT22;244;48.508;9.052;2023-08-31T06:18:21;15.60;33.50
516;DHT22;244;48.508;9.052;2023-08-31T06:21:06;15.60;33.50
516;DHT22;244;48.508;9.052;2023-08-31T06:23:50;15.60;33.50
516;DHT22;244;48.508;9.052;2023-08-31T06:26:33;15.70;33.60
516;DHT22;244;48.508;9.052;2023-08-31T06:29:24;15.70;33.50
516;DHT22;244;48.508;9.052;2023-08-31T06:45:58;15.40;33.20
516;DHT22;244;48.508;9.052;2023-08-31T07:29:21;15.80;35.50
516;DHT22;244;48.508;9.052;2023-08-31T07:31:49;15.80;35.50
516;DHT22;244;48.508;9.052;2023-08-31T07:34:18;15.90;35.60
516;DHT22;244;48.508;9.052;2023-08-31T07:36:46;15.90;35.40
516;DHT22;244;48.508;9.052;2023-08-31T07:39:16;15.90;35.20
516;DHT22;244;48.508;9.052;2023-08-31T07:41:44;15.90;35.00
516;DHT22;244;48.508;9.052;2023-08-31T07:44:11;15.90;34.90
516;DHT22;244;48.508;9.052;2023-08-31T07:46:39;16.00;34.80
516;DHT22;244;48.508;9.052;2023-08-31T07:49:06;16.00;34.60
516;DHT22;244;48.508;9.052;2023-08-31T07:51:33;16.00;34.50
516;DHT22;244;48.508;9.052;2023-08-31T07:54:00;16.00;34.30
516;DHT22;244;48.508;9.052;2023-08-31T07:56:29;16.00;34.10
516;DHT22;244;48.508;9.052;2023-08-31T07:58:56;16.00;33.90
516;DHT22;244;48.508;9.052;2023-08-31T08:01:23;16.00;33.80
516;DHT22;244;48.508;9.052;2023-08-31T08:03:54;16.00;33.50
516;DHT22;244;48.508;9.052;2023-08-31T08:06:21;16.00;33.10
516;DHT22;244;48.508;9.052;2023-08-31T08:08:48;16.00;33.10
516;DHT22;244;48.508;9.052;2023-08-31T08:11:15;16.10;33.10
516;DHT22;244;48.508;9.052;2023-08-31T08:13:42;16.10;32.80
516;DHT22;244;48.508;9.052;2023-08-31T08:16:08;16.20;32.70
516;DHT22;244;48.508;9.052;2023-08-31T08:18:35;16.30;32.60
516;DHT22;244;48.508;9.052;2023-08-31T08:21:04;16.40;32.60
516;DHT22;244;48.508;9.052;2023-08-31T08:23:31;16.50;32.60
516;DHT22;244;48.508;9.052;2023-08-31T08:25:58;16.60;32.70
516;DHT22;244;48.508;9.052;2023-08-31T08:28:25;16.70;32.50
516;DHT22;244;48.508;9.052;2023-08-31T08:30:53;16.80;32.50
516;DHT22;244;48.508;9.052;2023-08-31T08:33:20;17.00;32.60
516;DHT22;244;48.508;9.052;2023-08-31T08:48:18;17.60;30.20
516;DHT22;244;48.508;9.052;2023-08-31T08:50:56;17.80;29.90
516;DHT22;244;48.508;9.052;2023-08-31T08:53:49;18.00;29.60
516;DHT22;244;48.508;9.052;2023-08-31T08:56:45;18.10;29.30
516;DHT22;244;48.508;9.052;2023-08-31T08:59:55;18.20;29.10
516;DHT22;244;48.508;9.052;2023-08-31T09:02:38;18.40;29.20
516;DHT22;244;48.508;9.052;2023-08-31T09:08:34;18.80;27.90
516;DHT22;244;48.508;9.052;2023-08-31T09:11:02;18.80;26.90
516;DHT22;244;48.508;9.052;2023-08-31T09:13:30;18.90;26.60
516;DHT22;244;48.508;9.052;2023-08-31T09:15:57;18.90;25.70
516;DHT22;244;48.508;9.052;2023-08-31T09:18:25;19.00;25.00
516;DHT22;244;48.508;9.052;2023-08-31T09:20:53;19.10;25.30
516;DHT22;244;48.508;9.052;2023-08-31T09:23:23;19.20;24.40
516;DHT22;244;48.508;9.052;2023-08-31T09:25:53;19.30;24.20
516;DHT22;244;48.508;9.052;2023-08-31T09:28:22;19.20;24.20
516;DHT22;244;48.508;9.052;2023-08-31T09:31:04;19.20;23.90
516;DHT22;244;48.508;9.052;2023-08-31T09:33:36;19.20;23.40
516;DHT22;244;48.508;9.052;2023-08-31T09:36:06;19.20;22.80
516;DHT22;244;48.508;9.052;2023-08-31T09:38:41;19.40;22.60
516;DHT22;244;48.508;9.052;2023-08-31T09:41:10;19.50;22.30
516;DHT22;244;48.508;9.052;2023-08-31T09:43:37;19.60;21.70
516;DHT22;244;48.508;9.052;2023-08-31T09:46:05;19.60;21.40
516;DHT22;244;48.508;9.052;2023-08-31T09:48:33;19.80;21.50
516;DHT22;244;48.508;9.052;2023-08-31T09:51:04;19.90;21.50
516;DHT22;244;48.508;9.052;2023-08-31T09:53:31;20.00;21.20
516;DHT22;244;48.508;9.052;2023-08-31T09:55:59;20.10;20.50
516;DHT22;244;48.508;9.052;2023-08-31T09:58:28;20.10;20.20
516;DHT22;244;48.508;9.052;2023-08-31T10:00:56;20.00;20.40
516;DHT22;244;48.508;9.052;2023-08-31T10:03:25;19.90;20.60
516;DHT22;244;48.508;9.052;2023-08-31T10:05:54;19.90;20.90
516;DHT22;244;48.508;9.052;2023-08-31T10:08:22;19.90;20.70
516;DHT22;244;48.508;9.052;2023-08-31T10:10:52;19.90;21.10
516;DHT22;244;48.508;9.052;2023-08-31T10:13:21;19.80;21.50
516;DHT22;244;48.508;9.052;2023-08-31T10:15:50;19.70;21.10
516;DHT22;244;48.508;9.052;2023-08-31T10:18:18;19.70;20.80
516;DHT22;244;48.508;9.052;2023-08-31T10:20:45;19.80;20.80
516;DHT22;244;48.508;9.052;2023-08-31T10:23:13;19.90;21.10
516;DHT22;244;48.508;9.052;2023-08-31T10:25:59;20.00;20.80
516;DHT22;244;48.508;9.052;2023-08-31T10:28:27;20.10;21.00
516;DHT22;244;48.508;9.052;2023-08-31T10:31:02;20.20;20.80
516;DHT22;244;48.508;9.052;2023-08-31T10:33:31;20.40;20.90
516;DHT22;244;48.508;9.052;2023-08-31T10:35:59;20.40;20.80
516;DHT22;244;48.508;9.052;2023-08-31T10:38:28;20.50;19.80
516;DHT22;244;48.508;9.052;2023-08-31T10:41:18;20.60;19.80
516;DHT22;244;48.508;9.052;2023-08-31T10:43:49;20.70;18.80
516;DHT22;244;48.508;9.052;2023-08-31T10:46:25;20.90;18.80
516;DHT22;244;48.508;9.052;2023-08-31T10:48:54;20.80;19.70
516;DHT22;244;48.508;9.052;2023-08-31T10:51:22;20.70;19.10
516;DHT22;244;48.508;9.052;2023-08-31T10:53:50;20.60;18.60
516;DHT22;244;48.508;9.052;2023-08-31T10:56:17;20.60;18.90
516;DHT22;244;48.508;9.052;2023-08-31T10:58:58;20.70;18.40
516;DHT22;244;48.508;9.052;2023-08-31T11:01:57;20.90;18.00
516;DHT22;244;48.508;9.052;2023-08-31T11:04:26;21.10;17.90
516;DHT22;244;48.508;9.052;2023-08-31T11:07:13;21.30;18.00
516;DHT22;244;48.508;9.052;2023-08-31T11:09:40;21.40;17.50
516;DHT22;244;48.508;9.052;2023-08-31T11:12:08;21.40;17.20
516;DHT22;244;48.508;9.052;2023-08-31T11:14:37;21.30;17.40
516;DHT22;244;48.508;9.052;2023-08-31T11:17:06;21.40;17.60
516;DHT22;244;48.508;9.052;2023-08-31T11:19:33;21.50;17.30
516;DHT22;244;48.508;9.052;2023-08-31T11:22:01;21.70;17.50
516;DHT22;244;48.508;9.052;2023-08-31T11:24:29;21.80;15.80
516;DHT22;244;48.508;9.052;2023-08-31T11:26:56;21.70;14.30
516;DHT22;244;48.508;9.052;2023-08-31T11:29:23;21.90;15.30
516;DHT22;244;48.508;9.052;2023-08-31T11:31:50;22.10;15.40
516;DHT22;244;48.508;9.052;2023-08-31T11:34:20;22.10;14.10
516;DHT22;244;48.508;9.052;2023-08-31T11:36:47;22.10;14.10
516;DHT22;244;48.508;9.052;2023-08-31T11:39:15;22.10;14.60
516;DHT22;244;48.508;9.052;2023-08-31T11:41:44;22.30;15.20
516;DHT22;244;48.508;9.052;2023-08-31T11:44:13;22.50;15.10
516;DHT22;244;48.508;9.052;2023-08-31T11:46:42;22.50;14.80
516;DHT22;244;48.508;9.052;2023-08-31T11:49:10;22.50;14.40
516;DHT22;244;48.508;9.052;2023-08-31T11:51:39;22.50;14.40
516;DHT22;244;48.508;9.052;2023-08-31T11:54:06;22.60;15.10
516;DHT22;244;48.508;9.052;2023-08-31T11:56:40;22.60;14.40
516;DHT22;244;48.508;9.052;2023-08-31T11:59:09;22.60;14.50
516;DHT22;244;48.508;9.052;2023-08-31T12:01:40;22.70;15.00
516;DHT22;244;48.508;9.052;2023-08-31T12:04:12;22.60;13.90
516;DHT22;244;48.508;9.052;2023-08-31T12:06:41;22.60;13.70
516;DHT22;244;48.508;9.052;2023-08-31T12:09:09;22.70;12.90
516;DHT22;244;48.508;9.052;2023-08-31T12:11:36;23.00;13.10
516;DHT22;244;48.508;9.052;2023-08-31T12:14:17;23.30;13.20
516;DHT22;244;48.508;9.052;2023-08-31T12:16:45;23.50;13.00
516;DHT22;244;48.508;9.052;2023-08-31T12:19:12;23.70;12.80
516;DHT22;244;48.508;9.052;2023-08-31T12:21:41;23.70;11.60
516;DHT22;244;48.508;9.052;2023-08-31T12:24:08;23.80;11.10
516;DHT22;244;48.508;9.052;2023-08-31T12:26:35;23.80;10.50
516;DHT22;244;48.508;9.052;2023-08-31T12:29:03;23.70;9.80
516;DHT22;244;48.508;9.052;2023-08-31T12:31:31;23.50;9.30
516;DHT22;244;48.508;9.052;2023-08-31T12:33:58;23.50;9.40
516;DHT22;244;48.508;9.052;2023-08-31T12:36:25;23.40;9.30
516;DHT22;244;48.508;9.052;2023-08-31T12:38:53;23.40;9.00
516;DHT22;244;48.508;9.052;2023-08-31T12:41:20;23.40;8.90
516;DHT22;244;48.508;9.052;2023-08-31T12:43:47;23.30;8.90
516;DHT22;244;48.508;9.052;2023-08-31T12:46:14;23.20;8.50
516;DHT22;244;48.508;9.052;2023-08-31T12:48:42;23.00;9.00
516;DHT22;244;48.508;9.052;2023-08-31T12:51:09;22.90;8.60
516;DHT22;244;48.508;9.052;2023-08-31T12:53:38;22.90;8.50
516;DHT22;244;48.508;9.052;2023-08-31T12:56:07;23.00;8.20
516;DHT22;244;48.508;9.052;2023-08-31T12:58:33;22.90;7.90
516;DHT22;244;48.508;9.052;2023-08-31T13:01:01;22.80;8.10
516;DHT22;244;48.508;9.052;2023-08-31T13:03:28;22.80;8.60
516;DHT22;244;48.508;9.052;2023-08-31T13:05:55;22.90;7.30
516;DHT22;244;48.508;9.052;2023-08-31T13:08:23;22.80;6.40
516;DHT22;244;48.508;9.052;2023-08-31T13:10:53;22.80;6.40
516;DHT22;244;48.508;9.052;2023-08-31T13:13:22;23.00;6.20
516;DHT22;244;48.508;9.052;2023-08-31T13:15:49;23.20;5.60
516;DHT22;244;48.508;9.052;2023-08-31T13:18:16;23.40;5.80
516;DHT22;244;48.508;9.052;2023-08-31T13:20:49;23.50;5.10
516;DHT22;244;48.508;9.052;2023-08-31T13:23:16;23.40;4.80
516;DHT22;244;48.508;9.052;2023-08-31T13:25:43;23.30;4.90
516;DHT22;244;48.508;9.052;2023-08-31T13:28:10;23.30;4.80
516;DHT22;244;48.508;9.052;2023-08-31T13:30:39;23.40;4.50
516;DHT22;244;48.508;9.052;2023-08-31T13:33:08;23.50;4.50
516;DHT22;244;48.508;9.052;2023-08-31T13:35:35;23.60;3.90
516;DHT22;244;48.508;9.052;2023-08-31T13:38:02;23.70;3.70
516;DHT22;244;48.508;9.052;2023-08-31T13:40:30;23.70;3.90
516;DHT22;244;48.508;9.052;2023-08-31T13:42:58;24.00;4.40
516;DHT22;244;48.508;9.052;2023-08-31T13:45:27;24.30;3.40
516;DHT22;244;48.508;9.052;2023-08-31T13:47:55;24.60;3.10
516;DHT22;244;48.508;9.052;2023-08-31T13:50:22;24.60;2.40
516;DHT22;244;48.508;9.052;2023-08-31T13:52:50;24.50;2.30
516;DHT22;244;48.508;9.052;2023-08-31T13:55:17;24.40;2.30
516;DHT22;244;48.508;9.052;2023-08-31T13:57:44;24.30;2.40
516;DHT22;244;48.508;9.052;2023-08-31T14:00:12;24.10;2.30
516;DHT22;244;48.508;9.052;2023-08-31T14:02:39;24.00;2.50
516;DHT22;244;48.508;9.052;2023-08-31T14:05:08;24.00;2.50
516;DHT22;244;48.508;9.052;2023-08-31T14:07:36;24.00;2.40
516;DHT22;244;48.508;9.052;2023-08-31T14:10:03;24.10;2.40
516;DHT22;244;48.508;9.052;2023-08-31T14:12:32;24.20;2.10
516;DHT22;244;48.508;9.052;2023-08-31T14:14:59;24.10;2.00
516;DHT22;244;48.508;9.052;2023-08-31T14:17:29;24.00;1.80
516;DHT22;244;48.508;9.052;2023-08-31T14:19:58;23.90;1.70
516;DHT22;244;48.508;9.052;2023-08-31T14:22:26;23.90;1.80
516;DHT22;244;48.508;9.052;2023-08-31T14:24:54;23.90;1.90
516;DHT22;244;48.508;9.052;2023-08-31T14:27:21;23.90;1.80
516;DHT22;244;48.508;9.052;2023-08-31T14:29:48;24.00;1.70
516;DHT22;244;48.508;9.052;2023-08-31T14:32:15;24.10;1.50
516;DHT22;244;48.508;9.052;2023-08-31T14:34:42;24.10;1.30
516;DHT22;244;48.508;9.052;2023-08-31T14:37:09;24.00;1.40
516;DHT22;244;48.508;9.052;2023-08-31T14:39:37;23.70;1.60
516;DHT22;244;48.508;9.052;2023-08-31T14:42:04;23.60;1.80
516;DHT22;244;48.508;9.052;2023-08-31T14:44:31;23.40;1.90
516;DHT22;244;48.508;9.052;2023-08-31T14:46:58;23.30;2.10
516;DHT22;244;48.508;9.052;2023-08-31T14:49:29;23.10;2.20
516;DHT22;244;48.508;9.052;2023-08-31T14:51:56;23.00;2.60
516;DHT22;244;48.508;9.052;2023-08-31T14:54:25;22.80;2.70
516;DHT22;244;48.508;9.052;2023-08-31T14:56:53;22.70;2.90
516;DHT22;244;48.508;9.052;2023-08-31T14:59:20;22.90;3.00
516;DHT22;244;48.508;9.052;2023-08-31T15:01:47;23.50;2.50
516;DHT22;244;48.508;9.052;2023-08-31T15:04:14;23.70;2.10
516;DHT22;244;48.508;9.052;2023-08-31T15:06:42;23.70;1.90
516;DHT22;244;48.508;9.052;2023-08-31T15:09:09;23.50;1.90
516;DHT22;244;48.508;9.052;2023-08-31T15:11:36;23.40;2.10
516;DHT22;244;48.508;9.052;2023-08-31T15:14:06;23.20;2.30
516;DHT22;244;48.508;9.052;2023-08-31T15:16:33;23.10;2.50
516;DHT22;244;48.508;9.052;2023-08-31T15:19:01;22.90;2.60
516;DHT22;244;48.508;9.052;2023-08-31T15:22:04;22.80;2.70
516;DHT22;244;48.508;9.052;2023-08-31T15:24:33;22.60;2.80
516;DHT22;244;48.508;9.052;2023-08-31T15:27:02;22.50;3.30
516;DHT22;244;48.508;9.052;2023-08-31T15:29:30;22.40;3.10
516;DHT22;244;48.508;9.052;2023-08-31T15:31:59;22.30;4.00
516;DHT22;244;48.508;9.052;2023-08-31T15:34:26;22.10;3.30
516;DHT22;244;48.508;9.052;2023-08-31T15:36:53;22.00;3.50
516;DHT22;244;48.508;9.052;2023-08-31T15:39:20;21.90;3.60
516;DHT22;244;48.508;9.052;2023-08-31T15:41:47;21.90;3.80
516;DHT22;244;48.508;9.052;2023-08-31T15:44:14;21.80;3.90
516;DHT22;244;48.508;9.052;2023-08-31T15:46:43;21.70;4.10
516;DHT22;244;48.508;9.052;2023-08-31T15:49:11;21.60;4.20
516;DHT22;244;48.508;9.052;2023-08-31T15:51:38;21.60;4.40
516;DHT22;244;48.508;9.052;2023-08-31T15:54:05;21.60;4.30
516;DHT22;244;48.508;9.052;2023-08-31T15:56:32;21.60;4.90
516;DHT22;244;48.508;9.052;2023-08-31T15:58:59;21.70;4.30
516;DHT22;244;48.508;9.052;2023-08-31T16:01:26;21.70;4.30
516;DHT22;244;48.508;9.052;2023-08-31T16:03:54;21.70;4.30
516;DHT22;244;48.508;9.052;2023-08-31T16:06:35;21.80;4.40
516;DHT22;244;48.508;9.052;2023-08-31T16:09:04;21.80;4.50
516;DHT22;244;48.508;9.052;2023-08-31T16:11:33;21.80;4.50
516;DHT22;244;48.508;9.052;2023-08-31T16:14:00;21.80;4.70
516;DHT22;244;48.508;9.052;2023-08-31T16:23:20;21.70;4.60
516;DHT22;244;48.508;9.052;2023-08-31T16:25:47;21.60;4.50
516;DHT22;244;48.508;9.052;2023-08-31T16:28:14;21.60;4.50
516;DHT22;244;48.508;9.052;2023-08-31T16:30:45;21.50;4.50
516;DHT22;244;48.508;9.052;2023-08-31T16:33:13;21.50;4.70
516;DHT22;244;48.508;9.052;2023-08-31T16:35:40;21.40;4.90
516;DHT22;244;48.508;9.052;2023-08-31T16:38:07;21.40;5.00
516;DHT22;244;48.508;9.052;2023-08-31T16:40:35;21.30;5.00
516;DHT22;244;48.508;9.052;2023-08-31T16:43:03;21.30;5.10
516;DHT22;244;48.508;9.052;2023-08-31T16:45:30;21.20;5.20
516;DHT22;244;48.508;9.052;2023-08-31T16:47:57;21.20;5.30
516;DHT22;244;48.508;9.052;2023-08-31T16:50:31;21.10;5.40
516;DHT22;244;48.508;9.052;2023-08-31T16:52:58;21.00;5.50
516;DHT22;244;48.508;9.052;2023-08-31T16:55:25;21.00;5.60
516;DHT22;244;48.508;9.052;2023-08-31T16:57:55;20.90;5.70
516;DHT22;244;48.508;9.052;2023-08-31T17:00:22;20.80;5.80
516;DHT22;244;48.508;9.052;2023-08-31T17:02:49;20.70;5.90
516;DHT22;244;48.508;9.052;2023-08-31T17:05:37;20.70;6.10
516;DHT22;244;48.508;9.052;2023-08-31T17:08:04;20.60;6.20
516;DHT22;244;48.508;9.052;2023-08-31T17:10:32;20.50;6.20
516;DHT22;244;48.508;9.052;2023-08-31T17:13:00;20.50;6.40
516;DHT22;244;48.508;9.052;2023-08-31T17:15:29;20.40;6.50
516;DHT22;244;48.508;9.052;2023-08-31T17:17:57;20.40;6.60
516;DHT22;244;48.508;9.052;2023-08-31T17:20:25;20.30;6.70
516;DHT22;244;48.508;9.052;2023-08-31T17:22:52;20.30;6.90
516;DHT22;244;48.508;9.052;2023-08-31T17:25:19;20.30;7.00
516;DHT22;244;48.508;9.052;2023-08-31T17:27:46;20.30;7.20
516;DHT22;244;48.508;9.052;2023-08-31T17:30:14;20.20;7.30
516;DHT22;244;48.508;9.052;2023-08-31T17:32:41;20.20;7.50
516;DHT22;244;48.508;9.052;2023-08-31T17:35:08;20.20;7.60
516;DHT22;244;48.508;9.052;2023-08-31T17:37:35;20.20;7.80
516;DHT22;244;48.508;9.052;2023-08-31T17:40:03;20.10;7.90
516;DHT22;244;48.508;9.052;2023-08-31T17:42:32;20.10;8.10
516;DHT22;244;48.508;9.052;2023-08-31T17:45:01;20.10;8.20
516;DHT22;244;48.508;9.052;2023-08-31T17:47:29;20.00;8.20
516;DHT22;244;48.508;9.052;2023-08-31T17:49:56;20.00;8.40
516;DHT22;244;48.508;9.052;2023-08-31T17:52:23;20.00;8.60
516;DHT22;244;48.508;9.052;2023-08-31T17:54:50;19.90;8.70
516;DHT22;244;48.508;9.052;2023-08-31T17:57:17;19.90;8.90
516;DHT22;244;48.508;9.052;2023-08-31T17:59:46;19.80;9.10
516;DHT22;244;48.508;9.052;2023-08-31T18:02:13;19.80;9.30
516;DHT22;244;48.508;9.052;2023-08-31T18:04:42;19.80;9.50
516;DHT22;244;48.508;9.052;2023-08-31T18:07:08;19.70;9.60